createdAt,value
2023-02-28T00:01:17.410Z,98.00
2023-02-28T00:03:45.419Z,98.00
2023-02-28T00:06:13.349Z,98.00
2023-02-28T00:08:41.705Z,97.90
2023-02-28T00:11:12.978Z,98.00
2023-02-28T00:13:47.353Z,98.00
2023-02-28T00:16:16.779Z,97.90
2023-02-28T00:18:44.988Z,97.90
2023-02-28T00:21:12.832Z,97.90
2023-02-28T00:23:40.736Z,97.90
2023-02-28T00:26:08.570Z,97.90
2023-02-28T00:28:36.426Z,97.90
2023-02-28T00:31:06.085Z,98.00
2023-02-28T00:33:33.939Z,97.90
2023-02-28T00:36:07.140Z,98.00
2023-02-28T00:38:35.137Z,97.90
2023-02-28T00:41:05.433Z,97.90
2023-02-28T00:43:34.479Z,98.00
2023-02-28T00:46:02.651Z,97.90
2023-02-28T00:48:31.961Z,98.00
2023-02-28T00:50:59.781Z,98.00
2023-02-28T00:53:27.650Z,97.90
2023-02-28T00:55:55.491Z,98.10
2023-02-28T00:58:23.349Z,98.20
2023-02-28T01:00:51.238Z,98.10
2023-02-28T01:03:20.498Z,98.00
2023-02-28T01:05:49.944Z,98.10
2023-02-28T01:08:18.201Z,98.00
2023-02-28T01:10:46.508Z,98.10
2023-02-28T01:13:14.755Z,98.10
2023-02-28T01:15:46.187Z,98.00
2023-02-28T01:18:14.534Z,98.10
2023-02-28T01:20:42.550Z,98.10
2023-02-28T01:23:11.810Z,98.10
2023-02-28T01:25:40.491Z,98.10
2023-02-28T01:28:08.414Z,98.10
2023-02-28T01:30:36.305Z,98.10
2023-02-28T01:33:04.589Z,98.10
2023-02-28T01:35:34.807Z,98.10
2023-02-28T01:38:15.759Z,98.10
2023-02-28T01:40:50.581Z,98.10
2023-02-28T01:43:24.209Z,98.20
2023-02-28T01:45:52.814Z,98.20
2023-02-28T01:48:22.887Z,98.20
2023-02-28T01:50:51.318Z,98.20
2023-02-28T01:53:24.575Z,98.20
2023-02-28T01:55:54.976Z,98.20
2023-02-28T01:58:23.187Z,98.20
2023-02-28T02:00:51.066Z,98.20
2023-02-28T02:03:21.508Z,98.20
2023-02-28T02:05:49.435Z,98.20
2023-02-28T02:08:21.905Z,98.20
2023-02-28T02:10:54.239Z,98.20
2023-02-28T02:13:36.369Z,98.10
2023-02-28T02:16:17.654Z,98.20
2023-02-28T02:18:50.146Z,98.10
2023-02-28T02:22:05.718Z,98.10
2023-02-28T02:25:04.538Z,98.10
2023-02-28T02:27:57.650Z,98.10
2023-02-28T02:31:00.836Z,98.10
2023-02-28T02:33:45.242Z,98.10
2023-02-28T02:36:20.134Z,98.10
2023-02-28T02:38:52.732Z,98.20
2023-02-28T02:41:25.614Z,98.20
2023-02-28T02:43:56.618Z,98.10
2023-02-28T02:46:29.334Z,98.20
2023-02-28T02:48:59.914Z,98.20
2023-02-28T02:51:31.562Z,98.20
2023-02-28T02:54:04.209Z,98.20
2023-02-28T02:56:35.418Z,98.20
2023-02-28T02:59:05.977Z,98.20
2023-02-28T03:01:36.319Z,98.20
2023-02-28T03:04:07.824Z,98.20
2023-02-28T03:06:37.269Z,98.20
2023-02-28T03:09:05.428Z,98.20
2023-02-28T03:11:34.282Z,98.20
2023-02-28T03:14:25.639Z,98.10
2023-02-28T03:17:10.284Z,98.10
2023-02-28T03:19:53.947Z,98.10
2023-02-28T03:22:53.675Z,98.00
2023-02-28T03:25:28.043Z,98.00
2023-02-28T03:28:03.703Z,98.00
2023-02-28T03:30:38.735Z,98.00
2023-02-28T03:33:11.323Z,98.00
2023-02-28T03:35:42.463Z,98.00
2023-02-28T03:38:19.040Z,98.00
2023-02-28T03:40:51.302Z,98.00
2023-02-28T03:43:24.559Z,98.00
2023-02-28T03:45:54.586Z,98.00
2023-02-28T03:48:27.907Z,98.00
2023-02-28T03:50:58.967Z,98.00
2023-02-28T03:53:32.571Z,97.90
2023-02-28T03:56:03.560Z,97.90
2023-02-28T03:58:35.144Z,97.90
2023-02-28T04:01:09.339Z,97.90
2023-02-28T04:03:38.546Z,97.90
2023-02-28T04:06:08.910Z,97.90
2023-02-28T04:08:38.164Z,97.90
2023-02-28T04:11:10.579Z,97.90
2023-02-28T04:13:38.363Z,97.90
2023-02-28T04:16:18.707Z,97.90
2023-02-28T04:18:52.448Z,97.90
2023-02-28T04:21:23.017Z,97.90
2023-02-28T04:23:52.286Z,97.90
2023-02-28T04:26:20.118Z,97.90
2023-02-28T04:28:47.905Z,97.90
2023-02-28T04:31:15.701Z,97.80
2023-02-28T04:33:43.463Z,97.80
2023-02-28T04:36:11.417Z,97.80
2023-02-28T04:38:40.591Z,97.90
2023-02-28T04:41:09.794Z,97.80
2023-02-28T04:43:37.551Z,97.80
2023-02-28T04:46:07.054Z,97.80
2023-02-28T04:48:36.719Z,97.80
2023-02-28T04:51:06.384Z,97.80
2023-02-28T04:53:34.796Z,97.80
2023-02-28T04:56:02.634Z,97.80
2023-02-28T04:58:32.301Z,97.80
2023-02-28T05:01:05.832Z,97.80
2023-02-28T05:03:33.858Z,97.80
2023-02-28T05:06:01.621Z,97.70
2023-02-28T05:08:31.257Z,98.00
2023-02-28T05:10:59.744Z,97.70
2023-02-28T05:13:27.543Z,97.60
2023-02-28T05:15:56.858Z,97.60
2023-02-28T05:18:24.674Z,97.60
2023-02-28T05:20:52.482Z,97.50
2023-02-28T05:23:24.435Z,97.50
2023-02-28T05:25:53.311Z,97.50
2023-02-28T05:28:21.132Z,97.50
2023-02-28T05:30:49.062Z,97.50
2023-02-28T05:33:18.269Z,97.80
2023-02-28T05:35:46.384Z,97.40
2023-02-28T05:38:14.184Z,97.50
2023-02-28T05:40:42.161Z,97.40
2023-02-28T05:43:13.255Z,97.40
2023-02-28T05:45:41.061Z,97.40
2023-02-28T05:48:10.025Z,97.40
2023-02-28T05:50:39.368Z,97.40
2023-02-28T05:53:07.309Z,97.30
2023-02-28T05:55:37.111Z,97.30
2023-02-28T05:58:05.057Z,97.30
2023-02-28T06:00:32.959Z,97.30
2023-02-28T06:03:02.859Z,97.30
2023-02-28T06:05:30.707Z,97.20
2023-02-28T06:08:00.138Z,97.20
2023-02-28T06:10:28.029Z,97.20
2023-02-28T06:12:56.105Z,97.30
2023-02-28T06:15:23.910Z,97.20
2023-02-28T06:17:51.727Z,97.20
2023-02-28T06:20:19.821Z,97.20
2023-02-28T06:22:47.658Z,97.20
2023-02-28T06:25:17.234Z,97.20
2023-02-28T06:27:45.619Z,97.20
2023-02-28T06:30:15.030Z,97.20
2023-02-28T06:32:42.868Z,97.20
2023-02-28T06:35:10.961Z,97.20
2023-02-28T06:37:41.635Z,97.50
2023-02-28T06:40:11.178Z,97.20
2023-02-28T06:42:40.834Z,97.20
2023-02-28T06:45:10.660Z,97.20
2023-02-28T06:47:39.006Z,97.20
2023-02-28T06:50:08.542Z,97.30
2023-02-28T06:52:38.292Z,97.30
2023-02-28T06:55:07.533Z,97.20
2023-02-28T06:57:36.761Z,97.30
2023-02-28T07:00:08.677Z,97.20
2023-02-28T07:02:37.214Z,97.30
2023-02-28T07:05:05.651Z,97.30
2023-02-28T07:07:34.297Z,97.60
2023-02-28T07:10:02.169Z,97.30
2023-02-28T07:12:30.049Z,97.30
2023-02-28T07:14:57.958Z,97.30
2023-02-28T07:17:27.465Z,97.30
2023-02-28T07:19:55.539Z,97.40
2023-02-28T07:22:23.524Z,97.40
2023-02-28T07:24:51.466Z,97.40
2023-02-28T07:27:24.725Z,97.40
2023-02-28T07:29:52.878Z,97.40
2023-02-28T07:32:21.589Z,97.40
2023-02-28T07:34:54.331Z,97.50
2023-02-28T07:37:22.809Z,97.50
2023-02-28T07:39:50.572Z,97.50
2023-02-28T07:42:18.859Z,97.50
2023-02-28T07:44:47.066Z,97.40
2023-02-28T07:47:15.791Z,97.50
2023-02-28T07:49:43.630Z,97.40
2023-02-28T07:52:12.883Z,97.40
2023-02-28T07:54:40.710Z,97.40
2023-02-28T07:57:08.503Z,97.40
2023-02-28T07:59:36.583Z,97.30
2023-02-28T08:02:04.665Z,97.30
2023-02-28T08:04:34.662Z,97.30
2023-02-28T08:07:02.643Z,97.30
2023-02-28T08:09:32.011Z,97.30
2023-02-28T08:11:59.965Z,97.30
2023-02-28T08:14:28.099Z,97.30
2023-02-28T08:16:56.267Z,97.60
2023-02-28T08:19:24.426Z,97.30
2023-02-28T08:21:52.314Z,97.30
2023-02-28T08:24:20.168Z,97.30
2023-02-28T08:26:49.854Z,97.30
2023-02-28T08:29:18.040Z,97.30
2023-02-28T08:31:46.401Z,97.30
2023-02-28T08:34:16.277Z,97.30
2023-02-28T08:36:45.997Z,97.30
2023-02-28T08:39:14.561Z,97.30
2023-02-28T08:41:44.977Z,97.30
2023-02-28T08:44:14.558Z,97.30
2023-02-28T08:46:42.449Z,97.40
2023-02-28T08:49:12.799Z,97.50
2023-02-28T08:51:41.243Z,97.50
2023-02-28T08:54:11.523Z,97.60
2023-02-28T08:56:39.550Z,97.70
2023-02-28T08:59:10.719Z,97.80
2023-02-28T09:01:42.127Z,97.80
2023-02-28T09:04:11.738Z,97.80
2023-02-28T09:06:39.905Z,97.70
2023-02-28T09:09:08.872Z,97.70
2023-02-28T09:11:37.182Z,97.70
2023-02-28T09:14:05.253Z,97.70
2023-02-28T09:16:35.212Z,97.80
2023-02-28T09:19:05.060Z,97.70
2023-02-28T09:21:33.472Z,97.70
2023-02-28T09:24:01.636Z,97.60
2023-02-28T09:26:35.293Z,97.60
2023-02-28T09:29:12.257Z,97.70
2023-02-28T09:31:45.105Z,97.70
2023-02-28T09:34:14.587Z,97.60
2023-02-28T09:36:45.532Z,97.60
2023-02-28T09:39:16.519Z,97.60
2023-02-28T09:41:51.803Z,97.40
2023-02-28T09:44:25.492Z,97.40
2023-02-28T09:46:57.954Z,97.50
2023-02-28T09:49:33.868Z,97.50
2023-02-28T09:52:05.000Z,97.40
2023-02-28T09:54:34.852Z,97.40
2023-02-28T09:57:09.352Z,97.40
2023-02-28T10:00:05.791Z,97.30
2023-02-28T10:02:50.896Z,97.40
2023-02-28T10:05:22.846Z,97.40
2023-02-28T10:08:09.147Z,97.30
2023-02-28T10:10:41.925Z,97.30
2023-02-28T10:13:19.650Z,97.30
2023-02-28T10:15:49.493Z,97.30
2023-02-28T10:18:23.113Z,97.30
2023-02-28T10:20:53.748Z,97.30
2023-02-28T10:23:24.105Z,97.30
2023-02-28T10:25:57.111Z,97.30
2023-02-28T10:28:28.683Z,97.30
2023-02-28T10:30:57.512Z,97.20
2023-02-28T10:33:27.692Z,97.20
2023-02-28T10:35:57.472Z,97.10
2023-02-28T10:38:26.863Z,97.20
2023-02-28T10:41:06.110Z,97.10
2023-02-28T10:43:34.092Z,97.00
2023-02-28T10:46:05.904Z,97.10
2023-02-28T10:48:40.041Z,97.20
2023-02-28T10:51:12.311Z,97.30
2023-02-28T10:54:00.458Z,97.20
2023-02-28T10:56:30.039Z,97.10
2023-02-28T10:59:00.894Z,97.20
2023-02-28T11:01:40.793Z,97.20
2023-02-28T11:04:22.467Z,97.20
2023-02-28T11:07:00.017Z,97.30
2023-02-28T11:09:32.536Z,97.20
2023-02-28T11:12:01.133Z,97.20
2023-02-28T11:14:32.362Z,97.20
2023-02-28T11:17:13.875Z,97.20
2023-02-28T11:19:47.879Z,97.20
2023-02-28T11:22:22.889Z,97.20
2023-02-28T11:24:54.176Z,97.20
2023-02-28T11:27:47.786Z,97.20
2023-02-28T11:30:36.543Z,97.20
2023-02-28T11:33:23.822Z,97.20
2023-02-28T11:35:53.204Z,97.30
2023-02-28T11:38:22.501Z,97.20
2023-02-28T11:41:01.570Z,97.30
2023-02-28T11:43:47.181Z,97.40
2023-02-28T11:46:29.579Z,97.40
2023-02-28T11:49:05.473Z,97.50
2023-02-28T11:51:37.105Z,97.50
2023-02-28T11:54:30.656Z,97.40
2023-02-28T11:57:03.683Z,97.40
2023-02-28T11:59:45.284Z,97.40
2023-02-28T12:02:43.080Z,97.50
2023-02-28T12:05:25.721Z,97.50
2023-02-28T12:08:08.160Z,97.30
2023-02-28T12:10:41.614Z,97.30
2023-02-28T12:13:21.527Z,97.40
2023-02-28T12:16:22.122Z,97.40
2023-02-28T12:19:12.664Z,97.10
2023-02-28T12:22:07.617Z,97.00
2023-02-28T12:24:57.025Z,97.10
2023-02-28T12:27:32.399Z,97.10
2023-02-28T12:30:04.385Z,97.10
2023-02-28T12:32:37.402Z,97.40
2023-02-28T12:35:14.051Z,97.10
2023-02-28T12:37:48.040Z,97.10
2023-02-28T12:40:21.862Z,96.80
2023-02-28T12:42:57.228Z,97.20
2023-02-28T12:45:28.167Z,96.90
2023-02-28T12:48:02.170Z,96.80
2023-02-28T12:50:32.603Z,96.70
2023-02-28T12:53:05.772Z,96.60
2023-02-28T12:55:42.413Z,96.60
2023-02-28T12:58:22.604Z,96.80
2023-02-28T13:01:10.930Z,96.50
2023-02-28T13:04:10.872Z,96.40
2023-02-28T13:07:01.766Z,96.30
2023-02-28T13:09:32.730Z,96.50
2023-02-28T13:12:01.616Z,96.50
2023-02-28T13:14:37.902Z,96.40
2023-02-28T13:17:13.651Z,96.30
2023-02-28T13:19:45.332Z,96.50
2023-02-28T13:22:21.764Z,96.40
2023-02-28T13:24:52.373Z,96.40
2023-02-28T13:27:37.758Z,96.20
2023-02-28T13:30:39.261Z,96.20
2023-02-28T13:33:31.523Z,96.20
2023-02-28T13:36:25.117Z,96.10
2023-02-28T13:38:54.493Z,96.30
2023-02-28T13:41:48.604Z,96.50
2023-02-28T13:44:19.180Z,96.40
2023-02-28T13:47:23.583Z,96.20
2023-02-28T13:49:54.638Z,96.20
2023-02-28T13:52:30.140Z,96.30
2023-02-28T13:55:12.767Z,96.40
2023-02-28T13:57:53.512Z,96.50
2023-02-28T14:00:32.852Z,96.60
2023-02-28T14:03:16.913Z,96.60
2023-02-28T14:05:47.082Z,96.70
2023-02-28T14:08:18.953Z,96.70
2023-02-28T14:10:49.198Z,96.80
2023-02-28T14:13:47.964Z,96.60
2023-02-28T14:16:18.421Z,96.70
2023-02-28T14:18:53.478Z,96.70
2023-02-28T14:21:31.285Z,96.70
2023-02-28T14:24:32.849Z,96.70
2023-02-28T14:27:24.088Z,96.80
2023-02-28T14:30:28.472Z,96.40
2023-02-28T14:33:11.012Z,96.60
2023-02-28T14:35:53.125Z,96.60
2023-02-28T14:38:28.755Z,96.30
2023-02-28T14:40:58.603Z,96.40
2023-02-28T14:43:28.768Z,96.20
2023-02-28T14:45:59.456Z,96.20
2023-02-28T14:48:28.379Z,96.10
2023-02-28T14:50:59.285Z,96.10
2023-02-28T14:53:32.549Z,96.10
2023-02-28T14:56:01.308Z,96.20
2023-02-28T14:58:31.023Z,96.30
2023-02-28T15:01:01.270Z,96.40
2023-02-28T15:03:34.526Z,96.50
2023-02-28T15:06:04.576Z,96.40
2023-02-28T15:08:36.862Z,96.40
2023-02-28T15:11:09.000Z,96.60
2023-02-28T15:13:41.249Z,96.60
2023-02-28T15:16:14.772Z,96.60
2023-02-28T15:18:50.076Z,96.60
2023-02-28T15:21:20.644Z,96.50
2023-02-28T15:23:54.234Z,96.40
2023-02-28T15:26:25.512Z,96.40
2023-02-28T15:28:59.679Z,96.50
2023-02-28T15:31:36.938Z,96.50
2023-02-28T15:34:21.911Z,96.60
2023-02-28T15:36:51.225Z,96.60
2023-02-28T15:39:24.564Z,96.50
2023-02-28T15:41:52.819Z,96.30
2023-02-28T15:44:30.895Z,96.30
2023-02-28T15:47:03.625Z,96.10
2023-02-28T15:49:44.952Z,96.20
2023-02-28T15:52:17.499Z,96.30
2023-02-28T15:54:48.069Z,96.40
2023-02-28T15:57:19.965Z,96.40
2023-02-28T15:59:53.904Z,96.50
2023-02-28T16:02:35.489Z,96.60
2023-02-28T16:05:32.186Z,96.60
2023-02-28T16:13:32.026Z,96.60
2023-02-28T16:18:44.300Z,96.60
2023-02-28T16:21:12.324Z,96.60
2023-02-28T16:23:56.000Z,96.60
2023-02-28T16:26:28.485Z,96.60
2023-02-28T16:28:58.504Z,96.60
2023-02-28T16:31:28.654Z,96.60
2023-02-28T16:33:58.135Z,96.70
2023-02-28T16:36:27.640Z,96.60
2023-02-28T16:38:57.295Z,96.60
2023-02-28T16:41:29.826Z,96.60
2023-02-28T16:44:01.432Z,96.60
2023-02-28T16:46:35.465Z,96.60
2023-02-28T16:49:04.275Z,96.60
2023-02-28T16:51:35.759Z,96.60
2023-02-28T16:54:06.452Z,96.60
2023-02-28T16:56:37.318Z,96.60
2023-02-28T17:12:45.984Z,96.50
2023-02-28T17:15:21.265Z,96.50
2023-02-28T17:17:52.118Z,96.50
2023-02-28T17:20:24.754Z,96.60
2023-02-28T17:23:01.869Z,96.60
2023-02-28T17:25:37.500Z,96.40
2023-02-28T17:28:13.727Z,96.60
2023-02-28T17:30:48.802Z,96.60
2023-02-28T17:33:17.287Z,96.60
2023-02-28T17:35:45.629Z,96.60
2023-02-28T17:38:19.901Z,96.60
2023-02-28T17:40:48.458Z,96.60
2023-02-28T17:43:18.780Z,96.50
2023-02-28T17:45:47.454Z,96.60
2023-02-28T17:48:17.183Z,96.60
2023-02-28T17:53:24.125Z,96.90
2023-02-28T17:56:03.414Z,96.90
2023-02-28T17:58:54.489Z,96.60
2023-02-28T18:01:56.968Z,96.60
2023-02-28T18:04:44.234Z,96.60
2023-02-28T18:07:16.670Z,96.60
2023-02-28T18:09:44.905Z,96.60
2023-02-28T18:12:12.978Z,96.60
2023-02-28T18:14:47.748Z,96.60
2023-02-28T18:17:15.914Z,96.60
2023-02-28T18:19:46.459Z,96.60
2023-02-28T18:22:14.854Z,96.60
2023-02-28T18:24:43.228Z,96.60
2023-02-28T18:27:13.119Z,96.60
2023-02-28T18:29:42.697Z,96.60
2023-02-28T18:32:11.176Z,96.60
2023-02-28T18:34:39.333Z,96.50
2023-02-28T18:37:08.251Z,96.60
2023-02-28T18:39:36.525Z,96.60
2023-02-28T18:42:24.248Z,96.60
2023-02-28T18:45:01.587Z,96.60
2023-02-28T18:47:42.804Z,96.60
2023-02-28T18:50:20.717Z,96.60
2023-02-28T18:52:53.986Z,96.60
2023-02-28T18:55:24.719Z,96.60
2023-02-28T18:57:53.014Z,96.60
2023-02-28T19:00:26.009Z,96.60
2023-02-28T19:03:02.995Z,96.50
2023-02-28T19:05:50.100Z,96.50
2023-02-28T19:08:21.041Z,96.60
2023-02-28T19:10:49.251Z,96.50
2023-02-28T19:13:18.393Z,96.60
2023-02-28T19:15:48.536Z,96.50
2023-02-28T19:18:17.002Z,96.60
2023-02-28T19:20:45.213Z,96.50
2023-02-28T19:23:15.255Z,96.40
2023-02-28T19:25:43.818Z,96.50
2023-02-28T19:28:11.793Z,96.40
2023-02-28T19:30:40.018Z,96.40
2023-02-28T19:33:09.296Z,96.30
2023-02-28T19:35:37.779Z,96.30
2023-02-28T19:38:05.759Z,96.30
2023-02-28T19:41:07.613Z,96.20
2023-02-28T19:43:37.275Z,96.30
2023-02-28T19:46:06.664Z,96.30
2023-02-28T19:48:36.232Z,96.40
2023-02-28T19:51:07.126Z,96.30
2023-02-28T19:53:37.956Z,96.40
2023-02-28T19:56:06.604Z,96.40
2023-02-28T19:58:37.846Z,96.40
2023-02-28T20:01:10.492Z,96.40
2023-02-28T20:03:38.882Z,96.50
2023-02-28T20:06:09.937Z,96.40
2023-02-28T20:08:38.923Z,96.40
2023-02-28T20:11:10.085Z,96.40
2023-02-28T20:13:55.105Z,96.40
2023-02-28T20:16:23.134Z,96.40
2023-02-28T20:18:59.886Z,96.40
2023-02-28T20:21:28.053Z,96.80
2023-02-28T20:23:56.085Z,96.40
2023-02-28T20:26:24.607Z,96.40
2023-02-28T20:28:53.858Z,96.30
2023-02-28T20:31:38.578Z,96.40
2023-02-28T20:34:08.357Z,96.30
2023-02-28T20:36:38.123Z,96.30
2023-02-28T20:39:06.336Z,96.30
2023-02-28T20:41:34.204Z,96.40
2023-02-28T20:44:05.202Z,96.40
2023-02-28T20:46:34.646Z,96.40
2023-02-28T20:49:03.915Z,96.40
2023-02-28T20:51:34.242Z,96.50
2023-02-28T20:54:04.553Z,96.40
2023-02-28T20:56:33.226Z,96.40
2023-02-28T20:59:01.152Z,96.30
2023-02-28T21:01:30.865Z,96.40
2023-02-28T21:04:00.729Z,96.30
2023-02-28T21:06:32.038Z,96.30
2023-02-28T21:09:00.733Z,96.30
2023-02-28T21:11:31.330Z,96.30
2023-02-28T21:14:01.232Z,96.20
2023-02-28T21:16:30.718Z,96.10
2023-02-28T21:19:03.811Z,96.30
2023-02-28T21:21:34.806Z,96.20
2023-02-28T21:24:03.104Z,96.30
2023-02-28T21:26:31.405Z,96.20
2023-02-28T21:29:01.618Z,96.20
2023-02-28T21:31:32.115Z,96.10
2023-02-28T21:34:01.231Z,96.20
2023-02-28T21:36:33.373Z,96.20
2023-02-28T21:39:05.495Z,96.20
2023-02-28T21:41:33.402Z,96.20
2023-02-28T21:44:01.190Z,96.10
2023-02-28T21:46:30.956Z,96.10
2023-02-28T21:48:59.821Z,96.20
2023-02-28T21:51:31.093Z,96.10
2023-02-28T21:53:59.664Z,96.10
2023-02-28T21:56:31.054Z,96.30
2023-02-28T21:59:01.358Z,96.30
2023-02-28T22:01:31.176Z,96.40
2023-02-28T22:04:00.433Z,96.50
2023-02-28T22:06:31.103Z,96.50
2023-02-28T22:09:01.968Z,96.90
2023-02-28T22:11:31.189Z,96.60
2023-02-28T22:13:59.629Z,96.60
2023-02-28T22:16:31.219Z,96.70
2023-02-28T22:19:03.186Z,96.70
2023-02-28T22:21:31.023Z,96.70
2023-02-28T22:23:58.889Z,96.70
2023-02-28T22:26:26.779Z,96.70
2023-02-28T22:28:56.242Z,96.70
2023-02-28T22:31:26.414Z,96.70
2023-02-28T22:33:57.014Z,96.70
2023-02-28T22:36:25.281Z,96.70
2023-02-28T22:38:53.915Z,96.80
2023-02-28T22:41:23.486Z,96.80
2023-02-28T22:43:54.359Z,96.80
2023-02-28T22:46:24.906Z,96.80
2023-02-28T22:48:52.782Z,96.80
2023-02-28T22:51:23.231Z,96.90
2023-02-28T22:53:52.802Z,96.80
2023-02-28T22:56:22.819Z,96.80
2023-02-28T22:58:51.450Z,96.80
2023-02-28T23:01:20.544Z,96.80
2023-02-28T23:03:50.267Z,96.80
2023-02-28T23:06:22.443Z,96.80
2023-02-28T23:08:51.290Z,96.80
2023-02-28T23:11:21.017Z,96.80
2023-02-28T23:13:58.401Z,96.80
2023-02-28T23:16:29.340Z,96.80
2023-02-28T23:19:00.532Z,96.80
2023-02-28T23:21:29.033Z,96.80
2023-02-28T23:23:57.722Z,96.80
2023-02-28T23:26:25.652Z,96.80
2023-02-28T23:28:54.333Z,96.80
2023-02-28T23:31:22.466Z,96.80
2023-02-28T23:33:50.386Z,96.80
2023-02-28T23:36:19.893Z,96.80
2023-02-28T23:38:50.428Z,96.80
2023-02-28T23:41:19.683Z,96.80
2023-02-28T23:43:50.586Z,96.80
2023-02-28T23:46:18.736Z,96.90
2023-02-28T23:48:46.761Z,96.90
2023-02-28T23:51:17.580Z,96.90
2023-02-28T23:53:49.048Z,96.80
2023-02-28T23:56:19.685Z,96.80
2023-02-28T23:58:48.081Z,96.90
